sensor_id;sensor_type;location;lat;lon;timestamp;P1;durP1;ratioP1;P2;durP2;ratioP2
5026;SDS011;2532;52.480;13.354;2023-07-16T04:00:49;7.90;;;7.10;;
5026;SDS011;2532;52.480;13.354;2023-07-16T04:03:17;10.47;;;4.27;;
5026;SDS011;2532;52.480;13.354;2023-07-16T04:05:44;6.07;;;3.90;;
5026;SDS011;2532;52.480;13.354;2023-07-16T04:08:10;7.03;;;4.30;;
5026;SDS011;2532;52.480;13.354;2023-07-16T04:10:38;9.40;;;4.60;;
5026;SDS011;2532;52.480;13.354;2023-07-16T04:13:05;9.43;;;7.50;;
5026;SDS011;2532;52.480;13.354;2023-07-16T04:15:32;6.17;;;4.90;;
5026;SDS011;2532;52.480;13.354;2023-07-16T04:18:00;6.87;;;4.93;;
5026;SDS011;2532;52.480;13.354;2023-07-16T04:20:27;7.60;;;5.20;;
5026;SDS011;2532;52.480;13.354;2023-07-16T04:22:55;7.00;;;5.30;;
5026;SDS011;2532;52.480;13.354;2023-07-16T04:25:22;6.07;;;5.07;;
5026;SDS011;2532;52.480;13.354;2023-07-16T04:27:49;5.70;;;4.93;;
5026;SDS011;2532;52.480;13.354;2023-07-16T04:30:16;5.57;;;4.70;;
5026;SDS011;2532;52.480;13.354;2023-07-16T04:32:43;8.13;;;6.70;;
5026;SDS011;2532;52.480;13.354;2023-07-16T04:35:11;4.90;;;4.40;;
5026;SDS011;2532;52.480;13.354;2023-07-16T04:37:38;9.07;;;5.87;;
5026;SDS011;2532;52.480;13.354;2023-07-16T04:40:05;6.10;;;5.03;;
5026;SDS011;2532;52.480;13.354;2023-07-16T04:42:33;7.83;;;5.20;;
5026;SDS011;2532;52.480;13.354;2023-07-16T04:45:00;5.70;;;4.57;;
5026;SDS011;2532;52.480;13.354;2023-07-16T04:47:27;6.60;;;5.00;;
5026;SDS011;2532;52.480;13.354;2023-07-16T04:49:53;8.20;;;5.43;;
5026;SDS011;2532;52.480;13.354;2023-07-16T04:52:22;6.90;;;4.40;;
5026;SDS011;2532;52.480;13.354;2023-07-16T04:54:49;7.03;;;5.03;;
5026;SDS011;2532;52.480;13.354;2023-07-16T04:57:15;6.20;;;5.17;;
5026;SDS011;2532;52.480;13.354;2023-07-16T04:59:42;6.97;;;4.87;;
5026;SDS011;2532;52.480;13.354;2023-07-16T05:02:09;6.60;;;5.00;;
5026;SDS011;2532;52.480;13.354;2023-07-16T05:04:37;5.80;;;5.00;;
5026;SDS011;2532;52.480;13.354;2023-07-16T05:07:04;7.00;;;5.17;;
5026;SDS011;2532;52.480;13.354;2023-07-16T05:09:32;8.50;;;5.20;;
5026;SDS011;2532;52.480;13.354;2023-07-16T05:11:59;6.33;;;5.10;;
5026;SDS011;2532;52.480;13.354;2023-07-16T05:14:26;6.87;;;5.20;;
5026;SDS011;2532;52.480;13.354;2023-07-16T05:16:54;6.27;;;5.50;;
5026;SDS011;2532;52.480;13.354;2023-07-16T05:19:21;6.13;;;5.00;;
5026;SDS011;2532;52.480;13.354;2023-07-16T05:21:48;6.13;;;4.90;;
5026;SDS011;2532;52.480;13.354;2023-07-16T05:24:15;9.13;;;5.00;;
5026;SDS011;2532;52.480;13.354;2023-07-16T05:26:43;6.63;;;5.50;;
5026;SDS011;2532;52.480;13.354;2023-07-16T05:29:10;8.07;;;5.87;;
5026;SDS011;2532;52.480;13.354;2023-07-16T05:31:37;6.27;;;5.30;;
5026;SDS011;2532;52.480;13.354;2023-07-16T05:34:04;10.77;;;6.00;;
5026;SDS011;2532;52.480;13.354;2023-07-16T05:36:31;13.97;;;5.60;;
5026;SDS011;2532;52.480;13.354;2023-07-16T05:38:58;5.90;;;5.23;;
5026;SDS011;2532;52.480;13.354;2023-07-16T05:41:24;6.70;;;6.00;;
5026;SDS011;2532;52.480;13.354;2023-07-16T05:43:53;6.00;;;5.40;;
5026;SDS011;2532;52.480;13.354;2023-07-16T05:46:20;9.90;;;5.50;;
5026;SDS011;2532;52.480;13.354;2023-07-16T05:48:46;6.73;;;5.53;;
5026;SDS011;2532;52.480;13.354;2023-07-16T05:51:13;7.67;;;5.23;;
5026;SDS011;2532;52.480;13.354;2023-07-16T05:53:40;7.83;;;5.70;;
5026;SDS011;2532;52.480;13.354;2023-07-16T05:56:07;5.97;;;4.97;;
5026;SDS011;2532;52.480;13.354;2023-07-16T05:58:34;5.57;;;5.07;;
5026;SDS011;2532;52.480;13.354;2023-07-16T06:01:02;6.80;;;5.40;;
5026;SDS011;2532;52.480;13.354;2023-07-16T06:03:29;5.83;;;5.07;;
5026;SDS011;2532;52.480;13.354;2023-07-16T06:05:56;9.43;;;5.30;;
5026;SDS011;2532;52.480;13.354;2023-07-16T06:08:23;8.10;;;6.73;;
5026;SDS011;2532;52.480;13.354;2023-07-16T06:10:50;6.33;;;5.27;;
5026;SDS011;2532;52.480;13.354;2023-07-16T06:13:16;7.53;;;5.70;;
5026;SDS011;2532;52.480;13.354;2023-07-16T06:15:43;6.10;;;5.13;;
5026;SDS011;2532;52.480;13.354;2023-07-16T06:18:13;11.73;;;5.90;;
5026;SDS011;2532;52.480;13.354;2023-07-16T06:20:42;5.80;;;4.93;;
5026;SDS011;2532;52.480;13.354;2023-07-16T06:23:09;7.17;;;5.37;;
5026;SDS011;2532;52.480;13.354;2023-07-16T06:25:37;5.60;;;4.83;;
5026;SDS011;2532;52.480;13.354;2023-07-16T06:28:05;6.40;;;5.77;;
5026;SDS011;2532;52.480;13.354;2023-07-16T06:30:32;7.20;;;5.23;;
5026;SDS011;2532;52.480;13.354;2023-07-16T06:32:59;7.23;;;5.20;;
5026;SDS011;2532;52.480;13.354;2023-07-16T06:35:27;6.40;;;5.40;;
5026;SDS011;2532;52.480;13.354;2023-07-16T06:37:54;5.53;;;4.97;;
5026;SDS011;2532;52.480;13.354;2023-07-16T06:40:21;4.80;;;4.30;;
5026;SDS011;2532;52.480;13.354;2023-07-16T06:42:49;5.13;;;4.63;;
5026;SDS011;2532;52.480;13.354;2023-07-16T06:45:17;5.47;;;4.93;;
5026;SDS011;2532;52.480;13.354;2023-07-16T06:47:44;6.83;;;6.10;;
5026;SDS011;2532;52.480;13.354;2023-07-16T06:50:10;12.53;;;5.10;;
5026;SDS011;2532;52.480;13.354;2023-07-16T06:52:39;8.23;;;4.37;;
5026;SDS011;2532;52.480;13.354;2023-07-16T06:55:06;5.30;;;4.80;;
5026;SDS011;2532;52.480;13.354;2023-07-16T06:57:33;5.10;;;4.60;;
5026;SDS011;2532;52.480;13.354;2023-07-16T07:00:00;5.30;;;4.07;;
5026;SDS011;2532;52.480;13.354;2023-07-16T07:02:27;4.87;;;4.37;;
5026;SDS011;2532;52.480;13.354;2023-07-16T07:04:54;7.60;;;5.13;;
5026;SDS011;2532;52.480;13.354;2023-07-16T07:07:21;5.07;;;4.47;;
5026;SDS011;2532;52.480;13.354;2023-07-16T07:09:49;7.93;;;5.10;;
5026;SDS011;2532;52.480;13.354;2023-07-16T07:12:16;5.90;;;4.23;;
5026;SDS011;2532;52.480;13.354;2023-07-16T07:14:43;8.17;;;4.83;;
5026;SDS011;2532;52.480;13.354;2023-07-16T07:17:10;7.10;;;5.43;;
5026;SDS011;2532;52.480;13.354;2023-07-16T07:19:37;6.17;;;4.37;;
5026;SDS011;2532;52.480;13.354;2023-07-16T07:22:04;9.30;;;4.70;;
5026;SDS011;2532;52.480;13.354;2023-07-16T07:24:31;8.27;;;4.60;;
5026;SDS011;2532;52.480;13.354;2023-07-16T07:26:59;7.90;;;4.70;;
5026;SDS011;2532;52.480;13.354;2023-07-16T07:29:26;4.93;;;4.37;;
5026;SDS011;2532;52.480;13.354;2023-07-16T07:31:53;6.13;;;5.47;;
5026;SDS011;2532;52.480;13.354;2023-07-16T07:34:19;6.97;;;5.60;;
5026;SDS011;2532;52.480;13.354;2023-07-16T07:36:46;7.40;;;5.33;;
5026;SDS011;2532;52.480;13.354;2023-07-16T07:39:13;5.50;;;4.93;;
5026;SDS011;2532;52.480;13.354;2023-07-16T07:41:41;8.80;;;4.10;;
5026;SDS011;2532;52.480;13.354;2023-07-16T07:44:10;5.40;;;4.30;;
5026;SDS011;2532;52.480;13.354;2023-07-16T07:46:36;6.33;;;4.07;;
5026;SDS011;2532;52.480;13.354;2023-07-16T07:49:03;4.83;;;4.33;;
5026;SDS011;2532;52.480;13.354;2023-07-16T07:51:30;8.13;;;5.03;;
5026;SDS011;2532;52.480;13.354;2023-07-16T07:53:57;8.50;;;4.57;;
5026;SDS011;2532;52.480;13.354;2023-07-16T07:56:24;5.57;;;4.90;;
5026;SDS011;2532;52.480;13.354;2023-07-16T07:58:51;6.60;;;4.67;;
5026;SDS011;2532;52.480;13.354;2023-07-16T08:01:19;9.87;;;5.17;;
5026;SDS011;2532;52.480;13.354;2023-07-16T08:03:46;5.83;;;4.53;;
5026;SDS011;2532;52.480;13.354;2023-07-16T08:06:13;6.97;;;4.90;;
5026;SDS011;2532;52.480;13.354;2023-07-16T08:08:40;8.00;;;4.90;;
5026;SDS011;2532;52.480;13.354;2023-07-16T08:11:06;6.50;;;4.33;;
5026;SDS011;2532;52.480;13.354;2023-07-16T08:13:33;4.70;;;3.90;;
5026;SDS011;2532;52.480;13.354;2023-07-16T08:16:00;5.57;;;3.90;;
5026;SDS011;2532;52.480;13.354;2023-07-16T08:18:29;4.97;;;3.93;;
5026;SDS011;2532;52.480;13.354;2023-07-16T08:20:55;6.83;;;4.50;;
5026;SDS011;2532;52.480;13.354;2023-07-16T08:23:22;6.70;;;4.10;;
5026;SDS011;2532;52.480;13.354;2023-07-16T08:25:49;6.47;;;4.20;;
5026;SDS011;2532;52.480;13.354;2023-07-16T08:28:16;9.00;;;4.27;;
5026;SDS011;2532;52.480;13.354;2023-07-16T08:30:45;5.87;;;4.53;;
5026;SDS011;2532;52.480;13.354;2023-07-16T08:33:13;6.03;;;4.20;;
5026;SDS011;2532;52.480;13.354;2023-07-16T08:35:42;6.60;;;3.90;;
5026;SDS011;2532;52.480;13.354;2023-07-16T08:38:09;9.80;;;3.67;;
5026;SDS011;2532;52.480;13.354;2023-07-16T08:40:36;6.63;;;4.43;;
5026;SDS011;2532;52.480;13.354;2023-07-16T08:43:05;13.03;;;4.40;;
5026;SDS011;2532;52.480;13.354;2023-07-16T08:45:33;7.40;;;4.10;;
5026;SDS011;2532;52.480;13.354;2023-07-16T08:48:06;4.60;;;3.87;;
5026;SDS011;2532;52.480;13.354;2023-07-16T08:50:33;7.17;;;4.23;;
5026;SDS011;2532;52.480;13.354;2023-07-16T08:53:04;6.27;;;4.10;;
5026;SDS011;2532;52.480;13.354;2023-07-16T08:55:31;7.73;;;4.00;;
5026;SDS011;2532;52.480;13.354;2023-07-16T08:57:58;4.93;;;3.73;;
5026;SDS011;2532;52.480;13.354;2023-07-16T09:00:25;7.93;;;3.53;;
5026;SDS011;2532;52.480;13.354;2023-07-16T09:02:53;8.30;;;4.13;;
5026;SDS011;2532;52.480;13.354;2023-07-16T09:05:20;4.83;;;3.30;;
5026;SDS011;2532;52.480;13.354;2023-07-16T09:07:47;7.87;;;4.90;;
5026;SDS011;2532;52.480;13.354;2023-07-16T09:10:16;5.00;;;3.77;;
5026;SDS011;2532;52.480;13.354;2023-07-16T09:12:43;6.57;;;4.10;;
5026;SDS011;2532;52.480;13.354;2023-07-16T09:15:11;5.03;;;4.00;;
5026;SDS011;2532;52.480;13.354;2023-07-16T09:17:39;6.10;;;5.03;;
5026;SDS011;2532;52.480;13.354;2023-07-16T09:20:07;7.67;;;4.13;;
5026;SDS011;2532;52.480;13.354;2023-07-16T09:22:35;5.10;;;3.63;;
5026;SDS011;2532;52.480;13.354;2023-07-16T09:25:03;5.70;;;3.47;;
5026;SDS011;2532;52.480;13.354;2023-07-16T09:27:31;8.60;;;3.90;;
5026;SDS011;2532;52.480;13.354;2023-07-16T09:29:58;8.53;;;4.17;;
5026;SDS011;2532;52.480;13.354;2023-07-16T09:32:32;6.87;;;4.17;;
5026;SDS011;2532;52.480;13.354;2023-07-16T09:34:59;5.07;;;3.53;;
5026;SDS011;2532;52.480;13.354;2023-07-16T09:37:26;5.80;;;4.20;;
5026;SDS011;2532;52.480;13.354;2023-07-16T09:39:54;4.23;;;3.27;;
5026;SDS011;2532;52.480;13.354;2023-07-16T09:42:21;6.50;;;3.70;;
5026;SDS011;2532;52.480;13.354;2023-07-16T09:44:51;5.90;;;3.90;;
5026;SDS011;2532;52.480;13.354;2023-07-16T09:47:19;8.27;;;5.00;;
5026;SDS011;2532;52.480;13.354;2023-07-16T09:49:46;6.43;;;4.70;;
5026;SDS011;2532;52.480;13.354;2023-07-16T09:52:13;4.00;;;3.60;;
5026;SDS011;2532;52.480;13.354;2023-07-16T09:54:40;6.50;;;4.50;;
5026;SDS011;2532;52.480;13.354;2023-07-16T09:57:08;4.97;;;3.60;;
5026;SDS011;2532;52.480;13.354;2023-07-16T09:59:36;8.97;;;3.90;;
5026;SDS011;2532;52.480;13.354;2023-07-16T10:02:04;5.60;;;4.20;;
5026;SDS011;2532;52.480;13.354;2023-07-16T10:04:37;4.00;;;3.50;;
5026;SDS011;2532;52.480;13.354;2023-07-16T10:07:05;6.17;;;3.37;;
5026;SDS011;2532;52.480;13.354;2023-07-16T10:09:32;8.37;;;3.90;;
5026;SDS011;2532;52.480;13.354;2023-07-16T10:12:07;5.27;;;4.00;;
5026;SDS011;2532;52.480;13.354;2023-07-16T10:14:39;5.10;;;3.43;;
5026;SDS011;2532;52.480;13.354;2023-07-16T10:17:11;5.93;;;4.67;;
5026;SDS011;2532;52.480;13.354;2023-07-16T10:19:46;6.73;;;3.37;;
5026;SDS011;2532;52.480;13.354;2023-07-16T10:22:17;4.73;;;3.60;;
5026;SDS011;2532;52.480;13.354;2023-07-16T10:24:54;4.17;;;3.57;;
5026;SDS011;2532;52.480;13.354;2023-07-16T10:27:28;4.40;;;3.60;;
5026;SDS011;2532;52.480;13.354;2023-07-16T10:29:58;4.90;;;3.77;;
5026;SDS011;2532;52.480;13.354;2023-07-16T10:32:40;6.17;;;3.40;;
5026;SDS011;2532;52.480;13.354;2023-07-16T10:35:07;4.10;;;3.30;;
5026;SDS011;2532;52.480;13.354;2023-07-16T10:37:35;5.60;;;5.00;;
5026;SDS011;2532;52.480;13.354;2023-07-16T10:40:03;5.43;;;3.80;;
5026;SDS011;2532;52.480;13.354;2023-07-16T10:42:35;5.20;;;3.60;;
5026;SDS011;2532;52.480;13.354;2023-07-16T10:45:03;3.90;;;3.37;;
5026;SDS011;2532;52.480;13.354;2023-07-16T10:47:31;6.60;;;3.77;;
5026;SDS011;2532;52.480;13.354;2023-07-16T10:50:02;5.27;;;3.67;;
5026;SDS011;2532;52.480;13.354;2023-07-16T10:52:30;4.80;;;3.63;;
5026;SDS011;2532;52.480;13.354;2023-07-16T10:54:57;4.40;;;3.60;;
5026;SDS011;2532;52.480;13.354;2023-07-16T10:57:24;7.73;;;4.27;;
5026;SDS011;2532;52.480;13.354;2023-07-16T10:59:52;4.90;;;3.77;;
5026;SDS011;2532;52.480;13.354;2023-07-16T11:02:20;7.33;;;3.53;;
5026;SDS011;2532;52.480;13.354;2023-07-16T11:04:51;9.57;;;4.53;;
5026;SDS011;2532;52.480;13.354;2023-07-16T11:07:20;4.40;;;3.80;;
5026;SDS011;2532;52.480;13.354;2023-07-16T11:09:48;4.07;;;3.30;;
5026;SDS011;2532;52.480;13.354;2023-07-16T11:12:17;4.87;;;3.40;;
5026;SDS011;2532;52.480;13.354;2023-07-16T11:14:47;5.83;;;3.63;;
5026;SDS011;2532;52.480;13.354;2023-07-16T11:17:14;8.40;;;3.53;;
5026;SDS011;2532;52.480;13.354;2023-07-16T11:19:44;3.90;;;3.43;;
5026;SDS011;2532;52.480;13.354;2023-07-16T11:22:12;6.07;;;3.90;;
5026;SDS011;2532;52.480;13.354;2023-07-16T11:24:41;3.87;;;3.10;;
5026;SDS011;2532;52.480;13.354;2023-07-16T11:27:15;5.03;;;3.57;;
5026;SDS011;2532;52.480;13.354;2023-07-16T11:29:46;3.57;;;3.27;;
5026;SDS011;2532;52.480;13.354;2023-07-16T11:32:21;4.87;;;3.63;;
5026;SDS011;2532;52.480;13.354;2023-07-16T11:34:52;4.93;;;3.77;;
5026;SDS011;2532;52.480;13.354;2023-07-16T11:37:20;5.90;;;3.73;;
5026;SDS011;2532;52.480;13.354;2023-07-16T11:39:54;4.63;;;3.47;;
5026;SDS011;2532;52.480;13.354;2023-07-16T11:42:27;5.10;;;3.57;;
5026;SDS011;2532;52.480;13.354;2023-07-16T11:44:55;5.50;;;3.60;;
5026;SDS011;2532;52.480;13.354;2023-07-16T11:47:22;8.53;;;3.10;;
5026;SDS011;2532;52.480;13.354;2023-07-16T11:49:49;5.60;;;3.30;;
5026;SDS011;2532;52.480;13.354;2023-07-16T11:52:18;5.73;;;3.40;;
5026;SDS011;2532;52.480;13.354;2023-07-16T11:54:46;4.30;;;3.20;;
5026;SDS011;2532;52.480;13.354;2023-07-16T11:57:15;5.90;;;3.23;;
5026;SDS011;2532;52.480;13.354;2023-07-16T11:59:42;5.20;;;4.00;;
5026;SDS011;2532;52.480;13.354;2023-07-16T12:02:09;4.67;;;3.27;;
5026;SDS011;2532;52.480;13.354;2023-07-16T12:04:36;6.67;;;3.60;;
5026;SDS011;2532;52.480;13.354;2023-07-16T12:07:03;5.10;;;3.17;;
5026;SDS011;2532;52.480;13.354;2023-07-16T12:09:32;4.10;;;3.30;;
5026;SDS011;2532;52.480;13.354;2023-07-16T12:11:59;6.20;;;3.67;;
5026;SDS011;2532;52.480;13.354;2023-07-16T12:14:28;4.13;;;3.67;;
5026;SDS011;2532;52.480;13.354;2023-07-16T12:16:55;5.27;;;3.20;;
5026;SDS011;2532;52.480;13.354;2023-07-16T12:19:22;5.20;;;3.30;;
5026;SDS011;2532;52.480;13.354;2023-07-16T12:21:49;6.53;;;3.90;;
5026;SDS011;2532;52.480;13.354;2023-07-16T12:24:16;7.00;;;3.37;;
5026;SDS011;2532;52.480;13.354;2023-07-16T12:26:43;7.67;;;3.13;;
5026;SDS011;2532;52.480;13.354;2023-07-16T12:29:10;7.07;;;3.13;;
5026;SDS011;2532;52.480;13.354;2023-07-16T12:31:39;3.07;;;2.70;;
5026;SDS011;2532;52.480;13.354;2023-07-16T12:34:06;4.10;;;3.40;;
5026;SDS011;2532;52.480;13.354;2023-07-16T12:36:33;4.90;;;3.37;;
5026;SDS011;2532;52.480;13.354;2023-07-16T12:39:00;6.53;;;3.63;;
5026;SDS011;2532;52.480;13.354;2023-07-16T12:41:27;4.20;;;3.50;;
5026;SDS011;2532;52.480;13.354;2023-07-16T12:43:54;5.90;;;3.37;;
5026;SDS011;2532;52.480;13.354;2023-07-16T12:46:21;7.00;;;4.20;;
5026;SDS011;2532;52.480;13.354;2023-07-16T12:48:49;6.37;;;4.00;;
5026;SDS011;2532;52.480;13.354;2023-07-16T12:51:16;5.83;;;3.10;;
5026;SDS011;2532;52.480;13.354;2023-07-16T12:53:43;4.93;;;3.20;;
5026;SDS011;2532;52.480;13.354;2023-07-16T12:56:14;5.63;;;3.30;;
5026;SDS011;2532;52.480;13.354;2023-07-16T12:58:41;6.07;;;3.33;;
5026;SDS011;2532;52.480;13.354;2023-07-16T13:01:08;4.87;;;3.60;;
5026;SDS011;2532;52.480;13.354;2023-07-16T13:03:35;4.90;;;3.30;;
5026;SDS011;2532;52.480;13.354;2023-07-16T13:06:03;6.07;;;3.03;;
5026;SDS011;2532;52.480;13.354;2023-07-16T13:08:30;3.40;;;3.10;;
5026;SDS011;2532;52.480;13.354;2023-07-16T13:10:58;6.63;;;3.23;;
5026;SDS011;2532;52.480;13.354;2023-07-16T13:13:25;4.50;;;2.83;;
5026;SDS011;2532;52.480;13.354;2023-07-16T13:15:52;5.30;;;3.90;;
5026;SDS011;2532;52.480;13.354;2023-07-16T13:18:19;8.63;;;4.20;;
5026;SDS011;2532;52.480;13.354;2023-07-16T13:20:46;6.27;;;3.20;;
5026;SDS011;2532;52.480;13.354;2023-07-16T13:23:15;5.97;;;3.13;;
5026;SDS011;2532;52.480;13.354;2023-07-16T13:25:41;4.43;;;3.20;;
5026;SDS011;2532;52.480;13.354;2023-07-16T13:28:08;6.00;;;3.57;;
5026;SDS011;2532;52.480;13.354;2023-07-16T13:30:35;5.60;;;3.80;;
5026;SDS011;2532;52.480;13.354;2023-07-16T13:33:02;4.97;;;3.23;;
5026;SDS011;2532;52.480;13.354;2023-07-16T13:35:29;4.13;;;3.30;;
5026;SDS011;2532;52.480;13.354;2023-07-16T13:37:56;7.70;;;4.20;;
5026;SDS011;2532;52.480;13.354;2023-07-16T13:40:26;5.80;;;3.37;;
5026;SDS011;2532;52.480;13.354;2023-07-16T13:42:53;4.40;;;2.93;;
5026;SDS011;2532;52.480;13.354;2023-07-16T13:45:20;7.43;;;3.60;;
5026;SDS011;2532;52.480;13.354;2023-07-16T13:47:48;7.63;;;4.20;;
5026;SDS011;2532;52.480;13.354;2023-07-16T13:50:17;6.83;;;3.50;;
5026;SDS011;2532;52.480;13.354;2023-07-16T13:52:45;5.90;;;3.23;;
5026;SDS011;2532;52.480;13.354;2023-07-16T13:55:11;4.40;;;3.23;;
5026;SDS011;2532;52.480;13.354;2023-07-16T13:57:40;6.53;;;5.00;;
5026;SDS011;2532;52.480;13.354;2023-07-16T14:00:08;4.00;;;3.23;;
5026;SDS011;2532;52.480;13.354;2023-07-16T14:02:36;6.43;;;3.63;;
5026;SDS011;2532;52.480;13.354;2023-07-16T14:05:03;5.23;;;3.00;;
5026;SDS011;2532;52.480;13.354;2023-07-16T14:07:30;6.43;;;3.63;;
5026;SDS011;2532;52.480;13.354;2023-07-16T14:09:57;4.80;;;3.30;;
5026;SDS011;2532;52.480;13.354;2023-07-16T14:12:24;4.33;;;3.13;;
5026;SDS011;2532;52.480;13.354;2023-07-16T14:14:53;5.93;;;3.30;;
5026;SDS011;2532;52.480;13.354;2023-07-16T14:17:20;8.80;;;3.80;;
5026;SDS011;2532;52.480;13.354;2023-07-16T14:19:47;5.60;;;2.63;;
5026;SDS011;2532;52.480;13.354;2023-07-16T14:22:17;6.63;;;3.37;;
5026;SDS011;2532;52.480;13.354;2023-07-16T14:24:44;8.73;;;3.00;;
5026;SDS011;2532;52.480;13.354;2023-07-16T14:27:15;5.77;;;3.30;;
5026;SDS011;2532;52.480;13.354;2023-07-16T14:29:44;5.60;;;2.73;;
5026;SDS011;2532;52.480;13.354;2023-07-16T14:32:13;5.40;;;3.40;;
5026;SDS011;2532;52.480;13.354;2023-07-16T14:34:40;8.03;;;3.73;;
5026;SDS011;2532;52.480;13.354;2023-07-16T14:37:07;5.80;;;3.60;;
5026;SDS011;2532;52.480;13.354;2023-07-16T14:39:34;6.57;;;3.40;;
5026;SDS011;2532;52.480;13.354;2023-07-16T14:42:01;6.23;;;3.90;;
5026;SDS011;2532;52.480;13.354;2023-07-16T14:44:29;6.97;;;3.70;;
5026;SDS011;2532;52.480;13.354;2023-07-16T14:46:56;5.37;;;3.73;;
5026;SDS011;2532;52.480;13.354;2023-07-16T14:49:24;3.90;;;2.90;;
5026;SDS011;2532;52.480;13.354;2023-07-16T14:51:51;4.97;;;3.67;;
5026;SDS011;2532;52.480;13.354;2023-07-16T14:54:23;6.10;;;4.30;;
5026;SDS011;2532;52.480;13.354;2023-07-16T14:56:52;4.83;;;3.80;;
5026;SDS011;2532;52.480;13.354;2023-07-16T14:59:20;4.47;;;2.90;;
5026;SDS011;2532;52.480;13.354;2023-07-16T15:01:49;3.40;;;2.60;;
5026;SDS011;2532;52.480;13.354;2023-07-16T15:04:19;3.43;;;2.60;;
5026;SDS011;2532;52.480;13.354;2023-07-16T15:06:47;4.30;;;3.10;;
5026;SDS011;2532;52.480;13.354;2023-07-16T15:09:15;4.83;;;3.20;;
5026;SDS011;2532;52.480;13.354;2023-07-16T15:11:42;5.07;;;3.03;;
5026;SDS011;2532;52.480;13.354;2023-07-16T15:14:09;5.47;;;3.00;;
5026;SDS011;2532;52.480;13.354;2023-07-16T15:16:37;5.87;;;3.50;;
5026;SDS011;2532;52.480;13.354;2023-07-16T15:19:04;6.00;;;3.67;;
5026;SDS011;2532;52.480;13.354;2023-07-16T15:21:33;9.83;;;3.50;;
5026;SDS011;2532;52.480;13.354;2023-07-16T15:24:06;5.30;;;3.73;;
5026;SDS011;2532;52.480;13.354;2023-07-16T15:26:33;6.00;;;3.27;;
5026;SDS011;2532;52.480;13.354;2023-07-16T15:29:03;6.00;;;2.90;;
5026;SDS011;2532;52.480;13.354;2023-07-16T15:31:30;6.60;;;3.13;;
5026;SDS011;2532;52.480;13.354;2023-07-16T15:33:57;5.40;;;3.00;;
5026;SDS011;2532;52.480;13.354;2023-07-16T15:36:24;4.90;;;3.20;;
5026;SDS011;2532;52.480;13.354;2023-07-16T15:38:52;4.63;;;3.20;;
5026;SDS011;2532;52.480;13.354;2023-07-16T15:41:22;5.40;;;3.10;;
5026;SDS011;2532;52.480;13.354;2023-07-16T15:43:51;7.07;;;3.40;;
5026;SDS011;2532;52.480;13.354;2023-07-16T15:46:18;6.80;;;4.20;;
5026;SDS011;2532;52.480;13.354;2023-07-16T15:48:46;5.57;;;2.93;;
5026;SDS011;2532;52.480;13.354;2023-07-16T15:51:13;6.10;;;3.73;;
5026;SDS011;2532;52.480;13.354;2023-07-16T15:53:40;5.03;;;2.87;;
5026;SDS011;2532;52.480;13.354;2023-07-16T15:56:09;4.27;;;2.77;;
5026;SDS011;2532;52.480;13.354;2023-07-16T15:58:37;4.67;;;2.83;;
5026;SDS011;2532;52.480;13.354;2023-07-16T16:01:06;5.83;;;2.90;;
5026;SDS011;2532;52.480;13.354;2023-07-16T16:03:33;4.90;;;3.10;;
5026;SDS011;2532;52.480;13.354;2023-07-16T16:05:59;8.00;;;3.50;;
5026;SDS011;2532;52.480;13.354;2023-07-16T16:08:26;4.40;;;3.03;;
5026;SDS011;2532;52.480;13.354;2023-07-16T16:10:53;5.20;;;3.60;;
5026;SDS011;2532;52.480;13.354;2023-07-16T16:13:21;8.70;;;4.27;;
5026;SDS011;2532;52.480;13.354;2023-07-16T16:15:49;7.20;;;4.73;;
5026;SDS011;2532;52.480;13.354;2023-07-16T16:18:15;5.33;;;3.97;;
5026;SDS011;2532;52.480;13.354;2023-07-16T16:20:43;9.83;;;4.10;;
5026;SDS011;2532;52.480;13.354;2023-07-16T16:23:10;4.20;;;3.80;;
5026;SDS011;2532;52.480;13.354;2023-07-16T16:25:37;6.63;;;4.30;;
5026;SDS011;2532;52.480;13.354;2023-07-16T16:28:05;6.17;;;3.87;;
5026;SDS011;2532;52.480;13.354;2023-07-16T16:30:33;9.50;;;4.60;;
5026;SDS011;2532;52.480;13.354;2023-07-16T16:33:02;7.10;;;3.87;;
5026;SDS011;2532;52.480;13.354;2023-07-16T16:35:31;7.03;;;3.73;;
5026;SDS011;2532;52.480;13.354;2023-07-16T16:37:58;7.33;;;3.60;;
5026;SDS011;2532;52.480;13.354;2023-07-16T16:40:25;10.77;;;6.63;;
5026;SDS011;2532;52.480;13.354;2023-07-16T16:42:52;13.90;;;6.33;;
5026;SDS011;2532;52.480;13.354;2023-07-16T16:45:20;8.03;;;5.10;;
5026;SDS011;2532;52.480;13.354;2023-07-16T16:47:47;12.97;;;5.73;;
5026;SDS011;2532;52.480;13.354;2023-07-16T16:50:16;8.63;;;4.43;;
5026;SDS011;2532;52.480;13.354;2023-07-16T16:52:43;7.37;;;3.67;;
5026;SDS011;2532;52.480;13.354;2023-07-16T16:55:10;7.80;;;4.57;;
5026;SDS011;2532;52.480;13.354;2023-07-16T16:57:37;6.87;;;3.40;;
5026;SDS011;2532;52.480;13.354;2023-07-16T17:00:04;7.90;;;3.83;;
5026;SDS011;2532;52.480;13.354;2023-07-16T17:02:35;6.00;;;3.70;;
5026;SDS011;2532;52.480;13.354;2023-07-16T17:05:03;6.37;;;3.73;;
5026;SDS011;2532;52.480;13.354;2023-07-16T17:07:31;7.00;;;4.67;;
5026;SDS011;2532;52.480;13.354;2023-07-16T17:09:58;6.83;;;4.13;;
5026;SDS011;2532;52.480;13.354;2023-07-16T17:12:25;10.43;;;6.00;;
5026;SDS011;2532;52.480;13.354;2023-07-16T17:14:52;8.00;;;4.00;;
5026;SDS011;2532;52.480;13.354;2023-07-16T17:17:19;4.70;;;3.97;;
5026;SDS011;2532;52.480;13.354;2023-07-16T17:19:46;5.17;;;4.10;;
5026;SDS011;2532;52.480;13.354;2023-07-16T17:22:13;8.77;;;4.40;;
5026;SDS011;2532;52.480;13.354;2023-07-16T17:24:44;7.37;;;3.77;;
5026;SDS011;2532;52.480;13.354;2023-07-16T17:27:11;8.40;;;3.33;;
5026;SDS011;2532;52.480;13.354;2023-07-16T17:29:41;6.53;;;3.33;;
5026;SDS011;2532;52.480;13.354;2023-07-16T17:32:09;10.03;;;3.53;;
5026;SDS011;2532;52.480;13.354;2023-07-16T17:34:36;5.40;;;3.73;;
5026;SDS011;2532;52.480;13.354;2023-07-16T17:37:05;4.73;;;3.83;;
5026;SDS011;2532;52.480;13.354;2023-07-16T17:39:31;5.33;;;3.63;;
5026;SDS011;2532;52.480;13.354;2023-07-16T17:42:00;8.30;;;3.80;;
5026;SDS011;2532;52.480;13.354;2023-07-16T17:44:28;4.80;;;3.60;;
5026;SDS011;2532;52.480;13.354;2023-07-16T17:46:55;7.07;;;3.87;;
5026;SDS011;2532;52.480;13.354;2023-07-16T17:49:22;5.27;;;4.03;;
5026;SDS011;2532;52.480;13.354;2023-07-16T17:51:49;6.53;;;4.20;;
5026;SDS011;2532;52.480;13.354;2023-07-16T17:54:17;5.70;;;4.40;;
5026;SDS011;2532;52.480;13.354;2023-07-16T17:56:44;8.53;;;6.30;;
5026;SDS011;2532;52.480;13.354;2023-07-16T17:59:12;7.53;;;4.70;;
5026;SDS011;2532;52.480;13.354;2023-07-16T18:01:39;8.37;;;5.13;;
5026;SDS011;2532;52.480;13.354;2023-07-16T18:04:06;9.47;;;6.70;;
5026;SDS011;2532;52.480;13.354;2023-07-16T18:06:34;8.73;;;6.73;;
5026;SDS011;2532;52.480;13.354;2023-07-16T18:09:01;7.07;;;5.07;;
5026;SDS011;2532;52.480;13.354;2023-07-16T18:11:30;9.30;;;4.37;;
5026;SDS011;2532;52.480;13.354;2023-07-16T18:13:57;9.40;;;4.97;;
5026;SDS011;2532;52.480;13.354;2023-07-16T18:16:26;6.40;;;4.60;;
5026;SDS011;2532;52.480;13.354;2023-07-16T18:18:53;9.30;;;5.80;;
5026;SDS011;2532;52.480;13.354;2023-07-16T18:21:21;7.20;;;5.27;;
5026;SDS011;2532;52.480;13.354;2023-07-16T18:23:49;13.40;;;6.07;;
5026;SDS011;2532;52.480;13.354;2023-07-16T18:26:16;7.73;;;5.90;;
5026;SDS011;2532;52.480;13.354;2023-07-16T18:28:44;6.77;;;5.53;;
5026;SDS011;2532;52.480;13.354;2023-07-16T18:31:11;6.93;;;5.00;;
5026;SDS011;2532;52.480;13.354;2023-07-16T18:33:40;7.00;;;4.97;;
5026;SDS011;2532;52.480;13.354;2023-07-16T18:36:07;7.90;;;5.70;;
5026;SDS011;2532;52.480;13.354;2023-07-16T18:38:34;7.17;;;5.57;;
5026;SDS011;2532;52.480;13.354;2023-07-16T18:41:01;8.90;;;5.33;;
5026;SDS011;2532;52.480;13.354;2023-07-16T18:43:28;7.07;;;5.73;;
5026;SDS011;2532;52.480;13.354;2023-07-16T18:45:55;10.43;;;6.00;;
5026;SDS011;2532;52.480;13.354;2023-07-16T18:48:21;6.90;;;6.03;;
5026;SDS011;2532;52.480;13.354;2023-07-16T18:50:50;7.90;;;5.50;;
5026;SDS011;2532;52.480;13.354;2023-07-16T18:53:17;8.77;;;6.33;;
5026;SDS011;2532;52.480;13.354;2023-07-16T18:55:45;8.27;;;5.20;;
5026;SDS011;2532;52.480;13.354;2023-07-16T18:58:12;8.27;;;5.53;;
5026;SDS011;2532;52.480;13.354;2023-07-16T19:00:39;9.13;;;4.30;;
5026;SDS011;2532;52.480;13.354;2023-07-16T19:03:06;6.70;;;4.30;;